Time;durP1;ratioP1;P1;durP2;ratioP2;P2;SDS_P1;SDS_P2;PMS_P1;PMS_P2;Temp;Humidity;BMP_temperature;BMP_pressure;BME280_temperature;BME280_humidity;BME280_pressure;Samples;Min_cycle;Max_cycle;Signal;HPM_P1;HPM_P2
2023/05/17 00:01:19;;;;;;;;;;;;;;;26.12;43.91;94373.56;5048523;28;9124;-54
2023/05/17 00:03:47;;;;;;;;;;;;;;;26.15;43.84;94372.56;5025555;28;7280;-55
2023/05/17 00:06:38;;;;;;;;;;;;;;;26.16;44.09;94374.03;5033282;28;7317;-54
2023/05/17 00:09:24;;;;;;;;;;;;;;;26.16;44.23;94368.50;5035467;28;7278;-54
2023/05/17 00:12:03;;;;;;;;;;;;;;;26.12;44.53;94362.53;5022602;28;7269;-54
2023/05/17 00:14:32;;;;;;;;;;;;;;;26.14;44.26;94371.03;5034833;28;7295;-54
2023/05/17 00:16:59;;;;;;;;;;;;;;;26.13;43.98;94369.56;5023745;28;8246;-54
2023/05/17 00:19:31;;;;;;;;;;;;;;;26.13;44.55;94372.31;5044754;28;7042;-54
2023/05/17 00:22:36;;;;;;;;;;;;;;;26.15;43.76;94374.56;5041027;28;7237;-54
2023/05/17 00:25:03;;;;;;;;;;;;;;;26.12;43.92;94362.53;5043326;28;7291;-54
2023/05/17 00:27:36;;;;;;;;;;;;;;;26.11;43.79;94371.34;5034979;28;7219;-55
2023/05/17 00:30:36;;;;;;;;;;;;;;;26.10;43.90;94375.34;5051711;28;7290;-54
2023/05/17 00:33:05;;;;;;;;;;;;;;;26.08;44.27;94370.34;5024808;28;7575;-55
2023/05/17 00:39:03;;;;;;;;;;;;;;;26.12;43.88;94379.09;5001271;28;8232;-54
2023/05/17 00:41:48;;;;;;;;;;;;;;;26.11;44.22;94374.84;5009572;28;8235;-54
2023/05/17 00:44:45;;;;;;;;;;;;;;;26.12;44.36;94379.09;5002243;28;7256;-54
2023/05/17 00:47:12;;;;;;;;;;;;;;;26.10;44.10;94373.34;5005947;28;7265;-54
2023/05/17 00:50:00;;;;;;;;;;;;;;;26.11;44.26;94376.84;5013843;28;7430;-54
2023/05/17 00:52:35;;;;;;;;;;;;;;;26.10;44.14;94370.59;4997549;28;9094;-55
2023/05/17 00:55:10;;;;;;;;;;;;;;;26.10;44.07;94369.81;5005223;28;7351;-54
2023/05/17 00:57:36;;;;;;;;;;;;;;;26.10;44.03;94367.06;4999786;28;7216;-55
2023/05/17 01:00:12;;;;;;;;;;;;;;;26.09;44.36;94373.88;5008949;28;7254;-54
2023/05/17 01:02:49;;;;;;;;;;;;;;;26.09;43.97;94369.09;4990275;28;9079;-54
2023/05/17 01:05:19;;;;;;;;;;;;;;;26.07;44.06;94368.09;5005813;28;7512;-54
2023/05/17 01:07:46;;;;;;;;;;;;;;;26.07;44.15;94368.84;5000227;28;9857;-55
2023/05/17 01:10:12;;;;;;;;;;;;;;;26.09;44.20;94374.63;5004137;28;7266;-54
2023/05/17 01:12:57;;;;;;;;;;;;;;;26.09;44.36;94373.88;4997755;28;7327;-55
2023/05/17 01:15:35;;;;;;;;;;;;;;;26.08;43.47;94373.09;5007289;28;7292;-54
2023/05/17 01:18:16;;;;;;;;;;;;;;;26.07;44.39;94379.88;5035878;28;9115;-54
2023/05/17 01:21:00;;;;;;;;;;;;;;;26.07;43.77;94377.13;5025196;28;6995;-54
2023/05/17 01:23:58;;;;;;;;;;;;;;;26.08;43.72;94384.13;5041664;28;8702;-55
2023/05/17 01:26:38;;;;;;;;;;;;;;;26.05;44.18;94379.63;5029106;28;9334;-54
2023/05/17 01:29:08;;;;;;;;;;;;;;;26.06;44.23;94385.88;5034213;28;8499;-54
2023/05/17 01:31:36;;;;;;;;;;;;;;;26.07;44.08;94387.38;5047582;28;7112;-54
2023/05/17 01:34:12;;;;;;;;;;;;;;;26.04;43.90;94386.41;5033423;28;9100;-54
2023/05/17 01:36:38;;;;;;;;;;;;;;;26.04;43.61;94391.91;5033075;28;7126;-55
2023/05/17 01:43:30;;;;;;;;;;;;;;;26.04;43.79;94382.88;5003811;28;7083;-55
2023/05/17 01:50:05;;;;;;;;;;;;;;;26.00;44.10;94388.69;4954560;28;7041;-54
2023/05/17 01:53:02;;;;;;;;;;;;;;;26.00;44.20;94391.44;4931566;28;7023;-54
2023/05/17 01:55:47;;;;;;;;;;;;;;;25.98;44.52;94379.44;4931449;28;8886;-54
2023/05/17 01:58:29;;;;;;;;;;;;;;;25.96;43.59;94381.97;4935828;28;7198;-54
2023/05/17 02:01:27;;;;;;;;;;;;;;;25.97;43.89;94377.94;4946989;28;7036;-55
2023/05/17 02:04:15;;;;;;;;;;;;;;;25.96;43.83;94390.97;4930083;29;8248;-54
2023/05/17 02:07:01;;;;;;;;;;;;;;;25.95;44.35;94378.44;4948563;28;8753;-54
2023/05/17 02:09:45;;;;;;;;;;;;;;;25.95;43.89;94381.19;4926907;28;7206;-54
2023/05/17 02:12:11;;;;;;;;;;;;;;;25.96;44.48;94388.22;4939036;28;7274;-54
2023/05/17 02:14:57;;;;;;;;;;;;;;;25.95;43.82;94386.72;4925878;28;9048;-55
2023/05/17 02:17:23;;;;;;;;;;;;;;;25.94;44.31;94382.47;4935403;28;8734;-54
2023/05/17 02:20:01;;;;;;;;;;;;;;;25.97;44.34;94377.94;4942433;28;7016;-54
2023/05/17 02:22:46;;;;;;;;;;;;;;;25.98;43.94;94379.44;4951497;28;7512;-54
2023/05/17 02:25:19;;;;;;;;;;;;;;;25.96;43.98;94382.72;4981140;28;8262;-55
2023/05/17 02:31:27;;;;;;;;;;;;;;;25.96;43.49;94390.22;5042372;28;9390;-55
2023/05/17 02:37:43;;;;;;;;;;;;;;;25.96;43.98;94379.19;4972792;28;7116;-55
2023/05/17 02:40:28;;;;;;;;;;;;;;;25.96;43.76;94382.72;4950452;28;8621;-54
2023/05/17 02:43:09;;;;;;;;;;;;;;;25.95;43.49;94380.44;4962413;28;7248;-54
2023/05/17 02:46:13;;;;;;;;;;;;;;;25.94;43.58;94374.22;4954903;28;7179;-55
2023/05/17 02:48:43;;;;;;;;;;;;;;;25.92;43.57;94376.75;4956989;28;7485;-54
2023/05/17 02:51:46;;;;;;;;;;;;;;;25.92;44.31;94371.22;4958874;28;9305;-54
2023/05/17 02:58:04;;;;;;;;;;;;;;;25.88;43.46;94365.22;4896691;29;7281;-54
2023/05/17 03:01:27;;;;;;;;;;;;;;;25.90;43.44;94382.00;4872407;29;7043;-54
2023/05/17 03:04:03;;;;;;;;;;;;;;;25.90;43.42;94378.50;4877695;29;9194;-54
2023/05/17 03:06:43;;;;;;;;;;;;;;;25.86;43.78;94381.53;4892135;29;9147;-55
2023/05/17 03:09:12;;;;;;;;;;;;;;;25.87;43.73;94390.53;4880630;29;7040;-55
2023/05/17 03:11:38;;;;;;;;;;;;;;;25.86;44.17;94392.53;4896242;29;8785;-54
2023/05/17 03:14:30;;;;;;;;;;;;;;;25.89;44.32;94379.75;4884964;29;8067;-54
2023/05/17 03:17:05;;;;;;;;;;;;;;;25.88;43.50;94390.03;4915346;29;9106;-54
2023/05/17 03:19:48;;;;;;;;;;;;;;;25.87;43.86;94391.28;4928843;28;8276;-54
2023/05/17 03:22:45;;;;;;;;;;;;;;;25.87;44.13;94391.28;4929510;28;9202;-54
2023/05/17 03:25:22;;;;;;;;;;;;;;;25.85;43.67;94388.31;4909758;29;7339;-54
2023/05/17 03:28:19;;;;;;;;;;;;;;;25.88;44.21;94395.53;4930579;28;9064;-54
2023/05/17 03:31:21;;;;;;;;;;;;;;;25.88;43.65;94405.81;4972669;28;8784;-55
2023/05/17 03:33:51;;;;;;;;;;;;;;;25.88;44.37;94408.59;4989131;28;8724;-54
2023/05/17 03:36:20;;;;;;;;;;;;;;;25.87;43.20;94413.34;5035180;28;7195;-54
2023/05/17 03:38:48;;;;;;;;;;;;;;;25.85;44.13;94407.59;5051232;28;7301;-54
2023/05/17 03:41:31;;;;;;;;;;;;;;;25.82;43.72;94411.38;5046153;28;9016;-54
2023/05/17 03:44:22;;;;;;;;;;;;;;;25.84;44.23;94413.59;5048460;28;9119;-54
2023/05/17 03:47:05;;;;;;;;;;;;;;;25.82;43.58;94416.13;5034946;28;7123;-54
2023/05/17 03:49:52;;;;;;;;;;;;;;;25.85;43.90;94415.88;5031469;28;7319;-54
2023/05/17 03:52:18;;;;;;;;;;;;;;;25.81;44.16;94406.38;5048323;28;7114;-55
2023/05/17 03:54:56;;;;;;;;;;;;;;;25.82;44.21;94424.38;5018678;28;7040;-54
2023/05/17 03:57:24;;;;;;;;;;;;;;;25.81;43.66;94423.66;5032680;28;9141;-54
2023/05/17 04:00:10;;;;;;;;;;;;;;;25.80;44.26;94422.16;5046348;28;9312;-54
2023/05/17 04:02:56;;;;;;;;;;;;;;;25.82;44.25;94424.38;5034128;28;9155;-54
2023/05/17 04:06:01;;;;;;;;;;;;;;;25.82;43.44;94422.38;5037718;28;7247;-54
2023/05/17 04:09:07;;;;;;;;;;;;;;;25.82;43.37;94424.38;5006033;28;9169;-54
2023/05/17 04:12:01;;;;;;;;;;;;;;;25.83;44.21;94423.91;4990810;28;9241;-54
2023/05/17 04:14:33;;;;;;;;;;;;;;;25.82;43.51;94427.13;4990332;28;7025;-55
2023/05/17 04:17:19;;;;;;;;;;;;;;;25.81;43.39;94429.16;4992317;28;9101;-54
2023/05/17 04:20:30;;;;;;;;;;;;;;;25.82;44.18;94424.38;5001711;28;7274;-54
2023/05/17 04:23:11;;;;;;;;;;;;;;;25.77;43.80;94420.44;4945433;28;8775;-54
2023/05/17 04:26:04;;;;;;;;;;;;;;;25.78;43.45;94421.91;4940143;28;7096;-54
2023/05/17 04:28:41;;;;;;;;;;;;;;;25.75;43.61;94416.69;4959482;28;7363;-54
2023/05/17 04:31:15;;;;;;;;;;;;;;;25.78;43.39;94421.16;4965677;28;7125;-55
2023/05/17 04:34:01;;;;;;;;;;;;;;;25.76;44.11;94418.94;4954244;28;7258;-54
2023/05/17 04:37:03;;;;;;;;;;;;;;;25.78;43.47;94427.44;4953306;28;9083;-54
2023/05/17 04:39:42;;;;;;;;;;;;;;;25.77;43.37;94431.47;4969766;28;9330;-54
2023/05/17 04:42:18;;;;;;;;;;;;;;;25.77;44.21;94431.47;4945639;28;8753;-54
2023/05/17 04:44:56;;;;;;;;;;;;;;;25.73;43.76;94433.00;4962864;28;9061;-54
2023/05/17 04:47:23;;;;;;;;;;;;;;;25.76;44.17;94434.69;4970776;28;7285;-54
2023/05/17 04:50:25;;;;;;;;;;;;;;;25.75;44.11;94431.19;4985188;28;9063;-54
2023/05/17 04:53:10;;;;;;;;;;;;;;;25.73;43.46;94436.47;4994419;28;7407;-55
2023/05/17 04:55:58;;;;;;;;;;;;;;;25.73;44.30;94441.97;4981251;28;7154;-54
2023/05/17 04:58:37;;;;;;;;;;;;;;;25.71;44.27;94436.22;4973626;28;7449;-54
2023/05/17 05:01:17;;;;;;;;;;;;;;;25.74;44.24;94437.22;5034068;28;8117;-54
2023/05/17 05:03:54;;;;;;;;;;;;;;;25.73;44.31;94439.22;5034285;28;7021;-55
2023/05/17 05:06:21;;;;;;;;;;;;;;;25.71;43.65;94435.50;5031705;28;9322;-55
2023/05/17 05:08:59;;;;;;;;;;;;;;;25.68;43.90;94453.78;5042389;28;7674;-54
2023/05/17 05:11:35;;;;;;;;;;;;;;;25.65;44.35;94448.53;5027951;28;7274;-55
2023/05/17 05:14:21;;;;;;;;;;;;;;;25.68;44.67;94455.78;5015803;28;7095;-54
2023/05/17 05:16:56;;;;;;;;;;;;;;;25.61;43.87;94448.81;5028183;28;7218;-54
2023/05/17 05:19:40;;;;;;;;;;;;;;;25.60;45.00;94455.56;5049522;28;7198;-54
2023/05/17 05:22:07;;;;;;;;;;;;;;;25.60;44.69;94457.59;5024756;28;9193;-54
2023/05/17 05:24:43;;;;;;;;;;;;;;;25.57;44.97;94453.84;5042386;28;9123;-54
2023/05/17 05:27:10;;;;;;;;;;;;;;;25.58;44.64;94460.84;5035167;28;9100;-54
2023/05/17 05:30:02;;;;;;;;;;;;;;;25.65;44.66;94462.31;5030457;28;9373;-54
2023/05/17 05:32:58;;;;;;;;;;;;;;;25.68;44.11;94464.81;4976832;28;9378;-54
2023/05/17 05:35:28;;;;;;;;;;;;;;;25.71;44.68;94469.28;4935336;28;7246;-54
2023/05/17 05:38:24;;;;;;;;;;;;;;;25.75;44.42;94466.28;4933167;28;7127;-54
2023/05/17 05:41:31;;;;;;;;;;;;;;;25.76;44.03;94462.25;4929998;29;9386;-54
2023/05/17 05:43:57;;;;;;;;;;;;;;;25.74;43.35;94454.50;4895016;29;9050;-55
2023/05/17 05:46:29;;;;;;;;;;;;;;;25.79;42.55;94462.00;4894154;29;9064;-55
2023/05/17 05:48:55;;;;;;;;;;;;;;;25.80;43.22;94451.69;4890418;29;7287;-54
2023/05/17 05:51:24;;;;;;;;;;;;;;;25.83;42.40;94462.47;4889413;29;9102;-54
2023/05/17 05:54:07;;;;;;;;;;;;;;;25.88;42.99;94469.94;4888663;29;9057;-54
2023/05/17 05:56:43;;;;;;;;;;;;;;;25.87;43.09;94465.69;4896380;29;6888;-55
2023/05/17 05:59:18;;;;;;;;;;;;;;;25.92;42.67;94464.91;4891217;29;9013;-54
2023/05/17 06:01:45;;;;;;;;;;;;;;;25.98;42.67;94473.13;4893623;29;7311;-54
2023/05/17 06:04:17;;;;;;;;;;;;;;;25.98;43.21;94473.91;4892475;29;9715;-54
2023/05/17 06:06:42;;;;;;;;;;;;;;;25.99;42.52;94472.63;4888957;29;7238;-54
2023/05/17 06:09:11;;;;;;;;;;;;;;;26.03;43.11;94475.13;4909669;29;7262;-55
2023/05/17 06:11:39;;;;;;;;;;;;;;;26.10;42.43;94480.84;4947323;28;7273;-55
2023/05/17 06:14:05;;;;;;;;;;;;;;;26.21;42.83;94484.81;4968087;28;9106;-54
2023/05/17 06:16:34;;;;;;;;;;;;;;;26.30;43.24;94487.97;5009158;28;7297;-55
2023/05/17 06:19:12;;;;;;;;;;;;;;;26.35;42.92;94492.69;5036374;28;6999;-55
2023/05/17 06:21:43;;;;;;;;;;;;;;;26.45;42.06;94487.59;5046341;28;9056;-55
2023/05/17 06:24:29;;;;;;;;;;;;;;;26.56;42.50;94487.50;5038006;28;9145;-55
2023/05/17 06:27:01;;;;;;;;;;;;;;;26.62;41.61;94488.94;5029837;28;9124;-55
2023/05/17 06:30:11;;;;;;;;;;;;;;;26.72;41.58;94494.88;5034536;28;7221;-54
2023/05/17 06:32:43;;;;;;;;;;;;;;;26.78;41.68;94498.38;5044322;28;7134;-55
2023/05/17 06:35:35;;;;;;;;;;;;;;;26.84;41.42;94497.06;5036996;28;8968;-60
2023/05/17 06:38:05;;;;;;;;;;;;;;;26.89;41.53;94501.78;5052227;28;7084;-60
2023/05/17 06:40:35;;;;;;;;;;;;;;;26.96;41.27;94499.72;5034972;28;7405;-60
2023/05/17 06:43:09;;;;;;;;;;;;;;;27.00;41.54;94497.41;5032554;28;7328;-60
2023/05/17 06:45:35;;;;;;;;;;;;;;;27.05;41.58;94502.13;5026585;28;9009;-59
2023/05/17 06:48:16;;;;;;;;;;;;;;;27.11;40.69;94506.31;5051279;28;9361;-60
2023/05/17 06:51:19;;;;;;;;;;;;;;;27.17;40.69;94501.50;5045044;28;9129;-60
2023/05/17 06:53:49;;;;;;;;;;;;;;;27.20;40.57;94511.50;5019699;28;8799;-60
2023/05/17 06:56:24;;;;;;;;;;;;;;;27.23;40.80;94504.19;5021401;28;7350;-60
2023/05/17 06:58:51;;;;;;;;;;;;;;;27.26;40.61;94509.44;5034053;28;7276;-60
2023/05/17 07:01:20;;;;;;;;;;;;;;;27.29;40.89;94511.16;5050182;28;9020;-60
2023/05/17 07:03:46;;;;;;;;;;;;;;;27.31;40.84;94514.16;5046862;28;8754;-60
2023/05/17 07:06:33;;;;;;;;;;;;;;;27.34;40.86;94507.56;5029753;28;7006;-59
2023/05/17 07:09:17;;;;;;;;;;;;;;;27.36;41.04;94516.09;5020910;28;7666;-60
2023/05/17 07:11:53;;;;;;;;;;;;;;;27.37;40.88;94514.84;5050056;28;7260;-59
2023/05/17 07:14:27;;;;;;;;;;;;;;;27.40;41.38;94518.59;5035219;28;9159;-60
2023/05/17 07:16:54;;;;;;;;;;;;;;;27.39;41.16;94511.56;5035329;28;9506;-60
2023/05/17 07:19:19;;;;;;;;;;;;;;;27.41;41.11;94520.06;5019024;28;7114;-59
2023/05/17 07:21:46;;;;;;;;;;;;;;;27.41;41.24;94526.34;5031508;28;9007;-60
2023/05/17 07:24:14;;;;;;;;;;;;;;;27.39;41.08;94523.38;5017060;28;9131;-60
2023/05/17 07:26:44;;;;;;;;;;;;;;;27.39;41.28;94522.63;5034666;28;7235;-60
2023/05/17 07:30:06;;;;;;;;;;;;;;;27.42;41.35;94524.34;5038341;28;7020;-60
2023/05/17 07:32:33;;;;;;;;;;;;;;;27.42;41.20;94529.88;5040320;28;9076;-60
2023/05/17 07:35:13;;;;;;;;;;;;;;;27.39;41.20;94528.13;5033927;28;9452;-60
2023/05/17 07:38:26;;;;;;;;;;;;;;;27.44;41.05;94528.09;5018755;28;7287;-60
2023/05/17 07:41:01;;;;;;;;;;;;;;;27.47;40.93;94527.03;4976935;28;7162;-60
2023/05/17 07:43:39;;;;;;;;;;;;;;;27.47;40.96;94540.84;4979689;28;7279;-60
2023/05/17 07:46:06;;;;;;;;;;;;;;;27.49;40.95;94535.53;4983801;28;7354;-61
2023/05/17 07:48:33;;;;;;;;;;;;;;;27.50;40.87;94539.81;4972887;28;8687;-60
2023/05/17 07:51:20;;;;;;;;;;;;;;;27.50;40.70;94539.81;4965418;28;9397;-61
2023/05/17 07:53:57;;;;;;;;;;;;;;;27.50;41.23;94537.06;4967406;28;9174;-60
2023/05/17 07:56:24;;;;;;;;;;;;;;;27.53;40.96;94535.28;4969627;28;9411;-60
2023/05/17 07:58:50;;;;;;;;;;;;;;;27.50;40.83;94537.06;4970585;28;7279;-60
2023/05/17 08:01:31;;;;;;;;;;;;;;;27.52;41.05;94540.03;4980999;28;8264;-60
2023/05/17 08:04:17;;;;;;;;;;;;;;;27.52;40.74;94545.56;4974237;28;7467;-60
2023/05/17 08:06:54;;;;;;;;;;;;;;;27.51;41.40;94552.34;4961301;28;8162;-60
2023/05/17 08:10:12;;;;;;;;;;;;;;;27.49;40.59;94554.16;4962343;28;9036;-60
2023/05/17 08:12:49;;;;;;;;;;;;;;;27.45;41.30;94556.44;4935424;29;7110;-60
2023/05/17 08:15:32;;;;;;;;;;;;;;;27.43;41.15;94551.44;4936208;29;8579;-60
2023/05/17 08:17:59;;;;;;;;;;;;;;;27.44;40.70;94552.94;4976619;28;7212;-60
2023/05/17 08:20:26;;;;;;;;;;;;;;;27.41;40.58;94564.28;4955166;28;9074;-60
2023/05/17 08:23:03;;;;;;;;;;;;;;;27.41;41.11;94567.78;4953524;28;7101;-59
2023/05/17 08:25:37;;;;;;;;;;;;;;;27.38;41.10;94560.53;4964251;28;9016;-60
2023/05/17 08:28:05;;;;;;;;;;;;;;;27.40;41.37;94565.56;4967409;28;7300;-60
2023/05/17 08:30:52;;;;;;;;;;;;;;;27.39;40.69;94564.03;4961515;28;7029;-60
2023/05/17 08:33:57;;;;;;;;;;;;;;;27.39;41.41;94567.56;4962626;28;9083;-60
2023/05/17 08:36:35;;;;;;;;;;;;;;;27.38;41.20;94568.81;4951774;28;7027;-60
2023/05/17 08:39:05;;;;;;;;;;;;;;;27.36;40.95;94563.06;4961114;28;8228;-59
2023/05/17 08:41:33;;;;;;;;;;;;;;;27.38;41.47;94566.06;4969552;28;7280;-60
2023/05/17 08:44:09;;;;;;;;;;;;;;;27.37;41.31;94569.34;4963978;28;7240;-60
2023/05/17 08:46:55;;;;;;;;;;;;;;;27.36;40.36;94571.34;4980250;28;7668;-60
2023/05/17 08:49:33;;;;;;;;;;;;;;;27.33;40.11;94577.91;5042274;28;9040;-60
2023/05/17 08:52:10;;;;;;;;;;;;;;;27.33;40.59;94569.63;5043579;28;7279;-60
2023/05/17 08:54:37;;;;;;;;;;;;;;;27.34;40.92;94562.81;5033323;28;8916;-60
2023/05/17 08:57:36;;;;;;;;;;;;;;;27.34;41.10;94571.09;5053289;28;8939;-60
2023/05/17 09:00:11;;;;;;;;;;;;;;;27.34;40.89;94562.81;5028714;28;8726;-60
2023/05/17 09:02:42;;;;;;;;;;;;;;;27.32;40.80;94556.31;5049063;28;8794;-60
2023/05/17 09:05:09;;;;;;;;;;;;;;;27.31;40.91;94566.63;5051252;28;7260;-60
2023/05/17 09:08:23;;;;;;;;;;;;;;;27.34;41.06;94570.38;5050386;28;9072;-60
2023/05/17 09:10:59;;;;;;;;;;;;;;;27.33;41.02;94566.84;5043029;28;7267;-60
2023/05/17 09:13:31;;;;;;;;;;;;;;;27.34;41.90;94571.09;5028048;28;9088;-60
2023/05/17 09:16:29;;;;;;;;;;;;;;;27.34;41.23;94564.84;5034564;28;9183;-60
2023/05/17 09:19:29;;;;;;;;;;;;;;;27.33;41.27;94568.84;4994342;28;9402;-60
2023/05/17 09:22:06;;;;;;;;;;;;;;;27.32;40.84;94573.63;4939370;28;8710;-60
2023/05/17 09:24:46;;;;;;;;;;;;;;;27.31;41.18;94580.44;4950264;28;7112;-61
2023/05/17 09:27:41;;;;;;;;;;;;;;;27.32;40.86;94561.81;4935821;29;7334;-60
2023/05/17 09:30:15;;;;;;;;;;;;;;;27.30;41.36;94556.06;4946149;28;7043;-60
2023/05/17 09:33:14;;;;;;;;;;;;;;;27.30;41.22;94565.13;4947856;28;9075;-61
2023/05/17 09:35:55;;;;;;;;;;;;;;;27.30;41.78;94565.13;4943614;28;9667;-60
2023/05/17 09:38:36;;;;;;;;;;;;;;;27.26;41.62;94572.19;4951417;28;8996;-60
2023/05/17 09:41:02;;;;;;;;;;;;;;;27.22;41.47;94578.00;4945578;28;9715;-60
2023/05/17 09:43:44;;;;;;;;;;;;;;;27.20;41.61;94577.03;4953222;28;7211;-60
2023/05/17 09:46:27;;;;;;;;;;;;;;;27.16;41.77;94577.31;4952348;28;7434;-61
2023/05/17 09:49:16;;;;;;;;;;;;;;;27.18;41.62;94572.03;4934867;28;7885;-60
2023/05/17 09:51:51;;;;;;;;;;;;;;;27.16;41.92;94574.56;4936074;28;7028;-60
2023/05/17 09:54:59;;;;;;;;;;;;;;;27.15;41.61;94575.06;4957930;28;7218;-60
2023/05/17 10:01:12;;;;;;;;;;;;;;;27.14;42.11;94584.63;4916162;29;7470;-61
2023/05/17 10:07:46;;;;;;;;;;;;;;;27.12;41.99;94581.63;4868971;29;7078;-61
2023/05/17 10:10:22;;;;;;;;;;;;;;;27.11;41.89;94594.69;4849943;29;7047;-60
2023/05/17 10:12:51;;;;;;;;;;;;;;;27.10;41.41;94592.44;4864977;29;9400;-60
2023/05/17 10:15:35;;;;;;;;;;;;;;;27.09;41.87;94583.41;4860385;29;9394;-61
2023/05/17 10:18:12;;;;;;;;;;;;;;;27.08;41.88;94592.94;4859268;29;7459;-60
2023/05/17 10:20:39;;;;;;;;;;;;;;;27.08;41.92;94594.97;4845223;29;8864;-60
2023/05/17 10:23:22;;;;;;;;;;;;;;;27.07;42.50;94596.97;4845413;29;7044;-61
2023/05/17 10:25:49;;;;;;;;;;;;;;;27.08;42.35;94592.22;4853732;29;7723;-59
2023/05/17 10:28:17;;;;;;;;;;;;;;;27.08;42.57;94592.94;4902226;28;7475;-59
2023/05/17 10:30:44;;;;;;;;;;;;;;;27.05;42.85;94599.50;4947211;28;7030;-59
2023/05/17 10:33:13;;;;;;;;;;;;;;;27.07;42.71;94596.22;4942418;28;9123;-59
2023/05/17 10:35:42;;;;;;;;;;;;;;;27.05;42.55;94602.28;4949907;28;8882;-59
2023/05/17 10:38:19;;;;;;;;;;;;;;;27.08;42.42;94595.69;4953055;28;9294;-59
2023/05/17 10:40:48;;;;;;;;;;;;;;;27.07;41.97;94602.50;4934523;29;9361;-60
2023/05/17 10:43:59;;;;;;;;;;;;;;;27.06;42.15;94606.50;5005172;28;7023;-59
2023/05/17 10:46:30;;;;;;;;;;;;;;;27.05;43.02;94605.03;4971796;28;9199;-59
2023/05/17 10:49:06;;;;;;;;;;;;;;;27.06;42.44;94608.53;4967022;28;8767;-59
2023/05/17 10:51:38;;;;;;;;;;;;;;;27.05;42.58;94607.78;4984270;28;7077;-60
2023/05/17 10:54:11;;;;;;;;;;;;;;;27.02;42.43;94595.00;4969893;28;7287;-59
2023/05/17 10:56:49;;;;;;;;;;;;;;;27.06;42.50;94601.00;4984585;28;7535;-59
2023/05/17 10:59:23;;;;;;;;;;;;;;;27.06;42.21;94592.72;4961052;28;7265;-60
2023/05/17 11:02:24;;;;;;;;;;;;;;;27.06;42.28;94600.22;4970629;28;7064;-60
2023/05/17 11:05:29;;;;;;;;;;;;;;;27.06;41.99;94595.47;4982930;28;7175;-60
2023/05/17 11:08:24;;;;;;;;;;;;;;;27.04;41.70;94595.25;4985895;28;7253;-60
2023/05/17 11:11:24;;;;;;;;;;;;;;;27.03;41.63;94596.53;4972582;28;7415;-60
2023/05/17 11:14:10;;;;;;;;;;;;;;;27.02;41.61;94600.53;4973580;28;7358;-60
2023/05/17 11:16:42;;;;;;;;;;;;;;;27.02;42.41;94599.78;4967042;28;8822;-60
2023/05/17 11:19:28;;;;;;;;;;;;;;;27.00;41.84;94603.06;4975986;28;7172;-60
2023/05/17 11:21:54;;;;;;;;;;;;;;;26.98;42.14;94599.31;4977723;28;8998;-60
2023/05/17 11:25:16;;;;;;;;;;;;;;;26.98;42.01;94597.31;5037241;28;7709;-60
2023/05/17 11:27:51;;;;;;;;;;;;;;;26.97;42.01;94587.50;5049072;28;7356;-60
2023/05/17 11:30:23;;;;;;;;;;;;;;;26.98;41.96;94600.06;5042321;28;9232;-60
2023/05/17 11:32:58;;;;;;;;;;;;;;;26.96;41.76;94596.31;5037566;28;7379;-60
2023/05/17 11:35:31;;;;;;;;;;;;;;;26.95;42.02;94598.31;5049168;28;9009;-59
2023/05/17 11:38:22;;;;;;;;;;;;;;;26.94;41.95;94596.84;5022405;28;7247;-60
2023/05/17 11:40:55;;;;;;;;;;;;;;;26.94;42.11;94591.31;5040332;28;7265;-60
2023/05/17 11:43:22;;;;;;;;;;;;;;;26.96;42.05;94597.06;5048422;28;7906;-60
2023/05/17 11:45:52;;;;;;;;;;;;;;;26.99;41.49;94596.03;5040249;28;9490;-60
2023/05/17 11:48:21;;;;;;;;;;;;;;;26.97;41.97;94589.53;5043050;28;7233;-60
2023/05/17 11:50:49;;;;;;;;;;;;;;;27.00;42.09;94585.75;5044602;28;9442;-60
2023/05/17 11:53:18;;;;;;;;;;;;;;;27.00;41.32;94594.78;5040032;28;7035;-59
2023/05/17 11:55:51;;;;;;;;;;;;;;;27.00;41.82;94588.50;5031497;28;9145;-59
2023/05/17 11:58:23;;;;;;;;;;;;;;;26.99;41.89;94590.50;5038717;28;6986;-60
2023/05/17 12:00:56;;;;;;;;;;;;;;;26.99;41.74;94593.25;5033031;28;7419;-60
2023/05/17 12:03:28;;;;;;;;;;;;;;;26.99;41.80;94590.50;5037558;28;8176;-60
2023/05/17 12:06:08;;;;;;;;;;;;;;;26.99;41.41;94593.25;5029177;28;7764;-60
2023/05/17 12:08:37;;;;;;;;;;;;;;;26.96;42.15;94590.78;5030233;28;8792;-60
2023/05/17 12:11:09;;;;;;;;;;;;;;;26.94;42.14;94599.59;5031979;28;9126;-60
2023/05/17 12:13:40;;;;;;;;;;;;;;;26.89;42.13;94598.38;5028322;28;7080;-60
2023/05/17 12:16:10;;;;;;;;;;;;;;;26.89;42.07;94592.88;5050038;28;9272;-59
2023/05/17 12:18:57;;;;;;;;;;;;;;;26.87;41.59;94591.88;5020713;28;7228;-59
2023/05/17 12:21:24;;;;;;;;;;;;;;;26.89;41.81;94592.09;5028393;28;6979;-60
2023/05/17 12:23:51;;;;;;;;;;;;;;;26.87;41.82;94589.13;5041941;28;7303;-60
2023/05/17 12:26:20;;;;;;;;;;;;;;;26.83;41.68;94583.13;5036605;28;7391;-59
2023/05/17 12:28:58;;;;;;;;;;;;;;;26.84;41.92;94590.13;5053503;28;7141;-60
2023/05/17 12:31:32;;;;;;;;;;;;;;;26.83;42.26;94599.69;5055644;28;9782;-60
2023/05/17 12:34:08;;;;;;;;;;;;;;;26.84;42.12;94596.41;5033706;28;7241;-60
2023/05/17 12:36:36;;;;;;;;;;;;;;;26.82;41.75;94598.19;5036157;28;7026;-59
2023/05/17 12:39:14;;;;;;;;;;;;;;;26.81;41.65;94591.19;5045782;28;7049;-60
2023/05/17 12:41:42;;;;;;;;;;;;;;;26.83;41.95;94589.41;5049809;28;6988;-59
2023/05/17 12:44:42;;;;;;;;;;;;;;;26.84;41.78;94584.63;5046634;28;9046;-60
2023/05/17 12:47:09;;;;;;;;;;;;;;;26.83;41.87;94588.66;5013931;28;9044;-59
2023/05/17 12:50:02;;;;;;;;;;;;;;;26.82;41.96;94590.66;5009347;28;7244;-59
2023/05/17 12:53:06;;;;;;;;;;;;;;;26.82;41.41;94587.91;5007905;28;9407;-59
2023/05/17 12:56:25;;;;;;;;;;;;;;;26.80;40.61;94589.66;5004608;28;7277;-59
2023/05/17 12:59:12;;;;;;;;;;;;;;;26.78;40.36;94592.19;4955045;28;9463;-59
2023/05/17 13:01:59;;;;;;;;;;;;;;;26.76;40.36;94583.69;4931868;28;7281;-60
2023/05/17 13:04:46;;;;;;;;;;;;;;;26.78;40.34;94581.16;4948142;28;8706;-60
2023/05/17 13:07:23;;;;;;;;;;;;;;;26.79;40.11;94582.66;4956235;28;9080;-60
2023/05/17 13:10:03;;;;;;;;;;;;;;;26.80;40.16;94586.91;4947759;28;7315;-60
2023/05/17 13:12:29;;;;;;;;;;;;;;;26.76;40.34;94580.94;4939615;28;9334;-59
2023/05/17 13:15:29;;;;;;;;;;;;;;;26.78;40.73;94584.66;4937626;28;8826;-59
2023/05/17 13:18:13;;;;;;;;;;;;;;;26.76;40.70;94576.16;4914022;29;7053;-60
2023/05/17 13:21:10;;;;;;;;;;;;;;;26.78;40.69;94578.41;4913703;29;9079;-60
2023/05/17 13:23:42;;;;;;;;;;;;;;;26.77;41.24;94582.44;4919258;28;9411;-59
2023/05/17 13:26:18;;;;;;;;;;;;;;;26.75;40.83;94576.69;4933260;29;8848;-59
2023/05/17 13:28:45;;;;;;;;;;;;;;;26.77;41.23;94574.88;4915473;29;9400;-60
2023/05/17 13:31:12;;;;;;;;;;;;;;;26.76;40.82;94572.66;4917082;29;9334;-60
2023/05/17 13:33:38;;;;;;;;;;;;;;;26.75;40.95;94565.66;4939299;28;9378;-60
2023/05/17 13:36:05;;;;;;;;;;;;;;;26.76;40.90;94583.69;4992660;28;7298;-60
2023/05/17 13:38:34;;;;;;;;;;;;;;;26.77;41.55;94576.91;4985026;28;7086;-60
2023/05/17 13:41:19;;;;;;;;;;;;;;;26.76;40.86;94570.66;4985716;28;7431;-60
2023/05/17 13:44:15;;;;;;;;;;;;;;;26.75;40.81;94571.88;4978421;28;7223;-60
2023/05/17 13:46:55;;;;;;;;;;;;;;;26.73;41.72;94573.69;4991208;28;9473;-59
2023/05/17 13:49:32;;;;;;;;;;;;;;;26.76;41.14;94580.94;5009964;28;7031;-59
2023/05/17 13:52:02;;;;;;;;;;;;;;;26.77;41.12;94574.16;4974010;28;8740;-60
2023/05/17 13:54:55;;;;;;;;;;;;;;;26.76;41.13;94572.66;5024816;28;6857;-60
2023/05/17 13:58:00;;;;;;;;;;;;;;;26.74;41.15;94573.16;5045178;28;7459;-59
2023/05/17 14:01:24;;;;;;;;;;;;;;;26.76;41.04;94567.13;4981217;28;7045;-59
2023/05/17 14:03:55;;;;;;;;;;;;;;;26.76;40.89;94567.13;4995558;28;7025;-59
2023/05/17 14:06:53;;;;;;;;;;;;;;;26.75;41.07;94571.16;5004820;28;7282;-60
2023/05/17 14:09:33;;;;;;;;;;;;;;;26.73;41.34;94565.41;5010179;28;7220;-60
2023/05/17 14:12:30;;;;;;;;;;;;;;;26.73;41.39;94563.38;5006255;28;7271;-59
2023/05/17 14:15:51;;;;;;;;;;;;;;;26.72;41.28;94564.63;5011580;28;7373;-59
2023/05/17 14:18:17;;;;;;;;;;;;;;;26.71;41.32;94560.38;4929795;28;9490;-60
2023/05/17 14:20:54;;;;;;;;;;;;;;;26.72;41.43;94558.34;4934633;28;7007;-60
2023/05/17 14:23:50;;;;;;;;;;;;;;;26.72;41.27;94558.34;4952429;28;8365;-60
2023/05/17 14:26:32;;;;;;;;;;;;;;;26.68;41.17;94561.41;4930614;29;7144;-59
2023/05/17 14:29:17;;;;;;;;;;;;;;;26.72;41.49;94561.13;4910373;29;8209;-59
2023/05/17 14:32:15;;;;;;;;;;;;;;;26.69;41.58;94554.59;4934453;29;7057;-59
2023/05/17 14:35:06;;;;;;;;;;;;;;;26.70;41.30;94553.34;4892344;29;9111;-59